首页
METAR-TAF:

METAR-TAF

机场 :

格倫興, 瑞士

纬度: 47-10-53N, 经度: 007-24-59E, 海拔: 430米

当前天气观测

该预报发布于28分钟前的03:20 UTC
风速3节,风向多变
温度 17°C
湿度 100%
气压 1012 hPa
能见度10公里或以上
多云层高于400英尺

METAR: LSZG 250320Z AUTO VRB03KT 9999 BKN004 17/17 Q1012

时间: 05:48 (03:48 UTC)

预报

该预报发布于13小时和23分钟前的14:25 UTC
预报有效从24日的 15点(UTC)到 24日的 24点(UTC)
风速2节,风向多变
能见度10公里或以上
少量云层高于3000英尺
散云层高于7000英尺
短暂存在
从 24日的 15点(UTC)到 24日的 24点(UTC)
散云层高于4000英尺, 塔状积云.
阵雨
几率 40% :
短暂存在
从 24日的 15点(UTC)到 24日的 24点(UTC)
风速15节,风向西转西南,有时为30节阵风
能見度: 3000
散云层高于3000英尺, 积雨云.
雷暴, 雨

TAF: LSZG 241425Z 2415/2424 VRB02KT 9999 FEW030 SCT070 TEMPO 2415/2424 SHRA SCT040TCU PROB40 TEMPO 2415/2424 24015G30KT 3000 TSRA SCT030CB

超过4000个机场的气象观测和天气预报(METAR&TAF报告)。

可查询的气象台以黄色和红色小点在地图上表示。

将鼠标移到小点上方,可查看气象台名称。

然后点击查看天气观测和预报。

如需切换地图:点击带黑十字的绿色按钮放大地图;点击带横线的绿色按钮缩小地图;或者点击绿色箭头查看邻近地区的地图。


METAR-TAF: